Time;durP1;ratioP1;P1;durP2;ratioP2;P2;SDS_P1;SDS_P2;PMS_P1;PMS_P2;Temp;Humidity;BMP_temperature;BMP_pressure;BME280_temperature;BME280_humidity;BME280_pressure;Samples;Min_cycle;Max_cycle;Signal;HPM_P1;HPM_P2
2022/01/20 00:02:47;;;;;;;129.50;49.35;;;;;;;;;;4806592;29;20410;-80
2022/01/20 00:06:02;;;;;;;113.78;45.30;;;;;;;;;;4806865;29;20043;-80
2022/01/20 00:09:06;;;;;;;139.10;47.47;;;;;;;;;;4806383;29;20055;-80
2022/01/20 00:26:51;;;;;;;78.15;32.80;;;;;;;;;;4814312;29;20051;-79
2022/01/20 00:32:58;;;;;;;57.10;27.65;;;;;;;;;;4791580;29;20051;-79
2022/01/20 00:38:37;;;;;;;83.05;35.33;;;;;;;;;;4810040;29;20051;-80
2022/01/20 00:41:24;;;;;;;85.78;36.28;;;;;;;;;;4796892;29;20478;-80
2022/01/20 00:44:09;;;;;;;92.75;39.75;;;;;;;;;;4809894;29;20051;-80
2022/01/20 00:46:55;;;;;;;71.88;33.13;;;;;;;;;;4809442;29;20047;-80
2022/01/20 00:49:42;;;;;;;99.25;40.53;;;;;;;;;;4809993;29;20050;-80
2022/01/20 00:52:37;;;;;;;130.52;46.58;;;;;;;;;;4796343;29;20054;-80
2022/01/20 00:55:23;;;;;;;120.90;45.40;;;;;;;;;;4802639;29;20055;-79
2022/01/20 00:58:09;;;;;;;170.48;71.88;;;;;;;;;;4810509;29;20051;-79
2022/01/20 01:00:56;;;;;;;144.63;58.30;;;;;;;;;;4802102;29;20058;-79
2022/01/20 01:03:44;;;;;;;147.27;58.22;;;;;;;;;;4810617;29;20367;-80
2022/01/20 01:09:42;;;;;;;143.00;57.83;;;;;;;;;;4809801;29;20050;-79
2022/01/20 01:12:39;;;;;;;143.13;58.33;;;;;;;;;;4802138;29;20054;-80
2022/01/20 01:15:32;;;;;;;154.80;59.38;;;;;;;;;;4808932;29;20051;-79
2022/01/20 01:21:43;;;;;;;149.07;53.70;;;;;;;;;;4809000;29;20046;-80
2022/01/20 01:24:30;;;;;;;180.90;60.50;;;;;;;;;;4802291;29;20050;-80
2022/01/20 01:27:15;;;;;;;172.02;59.60;;;;;;;;;;4802650;29;20371;-80
2022/01/20 01:30:07;;;;;;;154.80;60.45;;;;;;;;;;4802012;29;20055;-79
2022/01/20 01:32:56;;;;;;;199.43;73.75;;;;;;;;;;4809490;29;20055;-79
2022/01/20 01:35:42;;;;;;;188.93;68.47;;;;;;;;;;4809175;29;20051;-80
2022/01/20 01:38:39;;;;;;;122.30;50.42;;;;;;;;;;4801323;29;20047;-79
2022/01/20 01:41:32;;;;;;;123.55;45.53;;;;;;;;;;4801996;29;20059;-80
2022/01/20 01:44:26;;;;;;;103.70;40.50;;;;;;;;;;4790017;29;20051;-81
2022/01/20 01:47:14;;;;;;;102.40;40.08;;;;;;;;;;4801780;29;20051;-79
2022/01/20 01:50:00;;;;;;;96.75;33.75;;;;;;;;;;4808565;29;20051;-82
2022/01/20 01:52:47;;;;;;;79.20;29.23;;;;;;;;;;4790020;29;20051;-80
2022/01/20 01:55:35;;;;;;;70.65;28.58;;;;;;;;;;4801533;29;20410;-80
2022/01/20 01:58:24;;;;;;;77.80;28.15;;;;;;;;;;4800734;29;20059;-80
2022/01/20 02:01:32;;;;;;;75.63;30.90;;;;;;;;;;4801054;29;20046;-80
2022/01/20 02:04:20;;;;;;;91.38;30.73;;;;;;;;;;4800683;29;20043;-80
2022/01/20 02:19:53;;;;;;;60.83;20.65;;;;;;;;;;4814289;29;20406;-80
2022/01/20 02:23:08;;;;;;;68.18;24.08;;;;;;;;;;4805417;29;20046;-80
2022/01/20 02:25:53;;;;;;;73.38;25.27;;;;;;;;;;4800121;29;20050;-79
2022/01/20 02:28:41;;;;;;;107.32;33.72;;;;;;;;;;4808273;29;20051;-79
2022/01/20 02:31:26;;;;;;;115.85;37.60;;;;;;;;;;4800527;29;20046;-79
2022/01/20 02:34:13;;;;;;;74.35;28.27;;;;;;;;;;4800579;29;20055;-79
2022/01/20 02:37:03;;;;;;;70.47;25.25;;;;;;;;;;4800684;29;20047;-78
2022/01/20 02:40:26;;;;;;;103.03;37.13;;;;;;;;;;4800350;29;20055;-79
2022/01/20 02:46:05;;;;;;;92.75;30.70;;;;;;;;;;4808138;29;20050;-79
2022/01/20 02:48:52;;;;;;;96.43;33.58;;;;;;;;;;4807675;29;20414;-79
2022/01/20 02:51:37;;;;;;;78.97;29.80;;;;;;;;;;4808849;29;20043;-79
2022/01/20 02:54:24;;;;;;;100.10;33.60;;;;;;;;;;4801045;29;20043;-80
2022/01/20 02:57:11;;;;;;;84.18;29.88;;;;;;;;;;4800539;29;20047;-79
2022/01/20 02:59:56;;;;;;;89.90;32.80;;;;;;;;;;4800198;29;20051;-78
2022/01/20 03:02:42;;;;;;;94.55;32.38;;;;;;;;;;4799845;29;20047;-79
2022/01/20 03:05:31;;;;;;;55.78;24.77;;;;;;;;;;4800025;29;20050;-78
2022/01/20 03:08:22;;;;;;;54.38;21.15;;;;;;;;;;4795515;29;20047;-78
2022/01/20 03:11:08;;;;;;;65.15;25.77;;;;;;;;;;4799871;29;20502;-79
2022/01/20 03:13:54;;;;;;;70.32;28.05;;;;;;;;;;4799756;29;20050;-79
2022/01/20 03:16:40;;;;;;;84.88;31.00;;;;;;;;;;4799514;29;20054;-79
2022/01/20 03:19:26;;;;;;;78.65;29.63;;;;;;;;;;4787180;29;20050;-81
2022/01/20 03:22:12;;;;;;;72.85;29.25;;;;;;;;;;4799333;29;20051;-81
2022/01/20 03:24:58;;;;;;;65.10;27.25;;;;;;;;;;4808282;29;20062;-80
2022/01/20 03:27:43;;;;;;;62.45;24.40;;;;;;;;;;4807446;29;20058;-81
2022/01/20 03:30:29;;;;;;;65.70;24.67;;;;;;;;;;4797728;29;20059;-81
2022/01/20 03:33:15;;;;;;;67.78;24.20;;;;;;;;;;4785955;29;20055;-80
2022/01/20 03:36:02;;;;;;;45.13;18.40;;;;;;;;;;4798865;29;20490;-81
2022/01/20 03:39:04;;;;;;;42.33;17.40;;;;;;;;;;4805795;29;20050;-81
2022/01/20 03:41:50;;;;;;;44.67;18.92;;;;;;;;;;4799034;29;20051;-81
2022/01/20 03:44:42;;;;;;;47.90;20.05;;;;;;;;;;4799362;29;20039;-81
2022/01/20 03:47:28;;;;;;;54.55;21.73;;;;;;;;;;4799573;29;20505;-81
2022/01/20 03:53:18;;;;;;;109.45;33.17;;;;;;;;;;4806921;29;20039;-81
2022/01/20 03:56:05;;;;;;;122.10;35.67;;;;;;;;;;4799415;29;20498;-80
2022/01/20 03:59:01;;;;;;;117.68;36.50;;;;;;;;;;4798905;29;20051;-81
2022/01/20 04:01:47;;;;;;;102.78;34.03;;;;;;;;;;4798695;29;20050;-81
2022/01/20 04:04:44;;;;;;;84.68;32.63;;;;;;;;;;4798592;29;20062;-81
2022/01/20 04:07:35;;;;;;;92.60;32.83;;;;;;;;;;4797270;29;20050;-81
2022/01/20 04:10:20;;;;;;;67.32;28.05;;;;;;;;;;4799162;29;20059;-81
2022/01/20 04:13:06;;;;;;;79.93;29.48;;;;;;;;;;4798916;29;20055;-81
2022/01/20 04:15:54;;;;;;;53.42;20.63;;;;;;;;;;4793654;29;20047;-81
2022/01/20 04:18:51;;;;;;;45.63;21.10;;;;;;;;;;4798722;29;20046;-81
2022/01/20 04:21:38;;;;;;;53.53;23.90;;;;;;;;;;4818063;29;20047;-82
2022/01/20 04:24:26;;;;;;;67.72;25.35;;;;;;;;;;4800697;29;20043;-81
2022/01/20 04:27:11;;;;;;;89.35;31.30;;;;;;;;;;4806927;29;20046;-81
2022/01/20 04:29:56;;;;;;;67.47;28.45;;;;;;;;;;4806463;29;20047;-81
2022/01/20 04:32:42;;;;;;;66.80;27.02;;;;;;;;;;4797677;29;20058;-81
2022/01/20 04:35:28;;;;;;;68.57;27.02;;;;;;;;;;4797417;29;20063;-81
2022/01/20 04:38:13;;;;;;;54.40;22.30;;;;;;;;;;4806246;29;20055;-80
2022/01/20 04:40:59;;;;;;;50.30;21.88;;;;;;;;;;4797430;29;20502;-80
2022/01/20 04:43:44;;;;;;;64.70;26.48;;;;;;;;;;4799312;29;20398;-80
2022/01/20 04:46:38;;;;;;;61.20;25.75;;;;;;;;;;4798153;29;20039;-81
2022/01/20 04:58:35;;;;;;;89.03;32.85;;;;;;;;;;4798773;29;20050;-80
2022/01/20 05:01:21;;;;;;;108.60;36.08;;;;;;;;;;4805450;29;20050;-80
2022/01/20 05:04:35;;;;;;;88.75;35.85;;;;;;;;;;4798671;29;20047;-80
2022/01/20 05:07:29;;;;;;;105.45;39.50;;;;;;;;;;4796707;29;20047;-81
2022/01/20 05:10:15;;;;;;;92.25;35.95;;;;;;;;;;4798253;29;20054;-81
2022/01/20 05:13:10;;;;;;;91.68;36.28;;;;;;;;;;4799500;29;20475;-81
2022/01/20 05:15:57;;;;;;;101.95;38.20;;;;;;;;;;4790122;29;20058;-81
2022/01/20 05:18:43;;;;;;;100.00;36.65;;;;;;;;;;4802272;29;20055;-81
2022/01/20 05:21:28;;;;;;;107.55;39.00;;;;;;;;;;4802104;29;20042;-81
2022/01/20 05:24:15;;;;;;;129.00;43.38;;;;;;;;;;4802242;29;20046;-81
2022/01/20 05:27:00;;;;;;;52.38;23.85;;;;;;;;;;4801957;29;20047;-81
2022/01/20 05:29:47;;;;;;;122.13;43.55;;;;;;;;;;4801230;29;20423;-81
2022/01/20 05:32:36;;;;;;;111.63;45.72;;;;;;;;;;4802725;29;20379;-81
2022/01/20 05:35:21;;;;;;;136.60;49.53;;;;;;;;;;4810171;29;20371;-81
2022/01/20 05:38:07;;;;;;;146.20;55.60;;;;;;;;;;4809105;29;20046;-81
2022/01/20 05:40:54;;;;;;;125.03;46.88;;;;;;;;;;4802337;29;20482;-81
2022/01/20 05:43:40;;;;;;;154.30;56.70;;;;;;;;;;4808810;29;20047;-81
2022/01/20 05:46:28;;;;;;;148.65;55.78;;;;;;;;;;4822672;29;20046;-81
2022/01/20 05:49:21;;;;;;;155.40;62.22;;;;;;;;;;4811634;29;20055;-81
2022/01/20 05:52:20;;;;;;;164.77;63.22;;;;;;;;;;4800847;29;20498;-81
2022/01/20 05:55:06;;;;;;;216.88;81.82;;;;;;;;;;4801740;29;20084;-81
2022/01/20 05:57:51;;;;;;;233.65;91.05;;;;;;;;;;4808635;29;20047;-81
2022/01/20 06:00:37;;;;;;;307.45;111.35;;;;;;;;;;4801247;29;20479;-81
2022/01/20 06:03:37;;;;;;;324.00;113.70;;;;;;;;;;4801561;29;20047;-81
2022/01/20 06:06:26;;;;;;;283.73;103.95;;;;;;;;;;4814031;29;20490;-80
2022/01/20 06:09:13;;;;;;;247.65;92.75;;;;;;;;;;4795283;29;20054;-80
2022/01/20 06:11:59;;;;;;;299.17;115.63;;;;;;;;;;4800480;29;20055;-80
2022/01/20 06:14:45;;;;;;;257.23;104.32;;;;;;;;;;4801581;29;20055;-79
2022/01/20 06:17:34;;;;;;;230.82;89.47;;;;;;;;;;4801069;29;20043;-79
2022/01/20 06:20:27;;;;;;;212.98;84.53;;;;;;;;;;4800171;29;20058;-79
2022/01/20 06:23:13;;;;;;;191.07;71.00;;;;;;;;;;4800928;29;20409;-79
2022/01/20 06:26:04;;;;;;;281.30;109.90;;;;;;;;;;4800275;29;20046;-79
2022/01/20 06:28:49;;;;;;;239.73;87.50;;;;;;;;;;4800286;29;20054;-79
2022/01/20 06:31:34;;;;;;;298.33;112.45;;;;;;;;;;4800568;29;20043;-78
2022/01/20 06:34:20;;;;;;;241.88;92.10;;;;;;;;;;4799800;29;20047;-78
2022/01/20 06:37:06;;;;;;;210.30;76.90;;;;;;;;;;4808296;29;20047;-79
2022/01/20 06:39:52;;;;;;;165.27;65.40;;;;;;;;;;4800975;29;20050;-80
2022/01/20 06:42:39;;;;;;;170.35;67.38;;;;;;;;;;4800116;29;20059;-79
2022/01/20 06:45:24;;;;;;;183.65;78.18;;;;;;;;;;4800652;29;20046;-79
2022/01/20 06:48:18;;;;;;;254.18;103.22;;;;;;;;;;4799781;29;20046;-79
2022/01/20 06:51:23;;;;;;;230.90;95.70;;;;;;;;;;4803145;29;20486;-79
2022/01/20 06:54:09;;;;;;;210.90;91.57;;;;;;;;;;4800096;29;20047;-81
2022/01/20 06:56:56;;;;;;;162.68;70.90;;;;;;;;;;4787580;29;20051;-80
2022/01/20 06:59:42;;;;;;;139.75;63.80;;;;;;;;;;4800250;29;20486;-79
2022/01/20 07:02:28;;;;;;;152.63;71.15;;;;;;;;;;4799166;29;20047;-80
2022/01/20 07:05:15;;;;;;;168.13;75.18;;;;;;;;;;4800122;29;20375;-79
2022/01/20 07:08:02;;;;;;;162.77;70.40;;;;;;;;;;4807291;29;20490;-80
2022/01/20 07:10:48;;;;;;;131.38;62.13;;;;;;;;;;4799381;29;20055;-79
2022/01/20 07:13:35;;;;;;;200.27;99.90;;;;;;;;;;4788407;29;20050;-80
2022/01/20 07:16:21;;;;;;;163.38;79.15;;;;;;;;;;4814650;29;20047;-79
2022/01/20 07:19:07;;;;;;;174.35;81.93;;;;;;;;;;4814173;29;20063;-78
2022/01/20 07:21:53;;;;;;;186.15;91.80;;;;;;;;;;4793251;29;20063;-80
2022/01/20 07:24:39;;;;;;;189.00;87.72;;;;;;;;;;4799561;29;20494;-80
2022/01/20 07:27:37;;;;;;;186.38;88.55;;;;;;;;;;4800160;29;20047;-80
2022/01/20 07:30:22;;;;;;;148.85;64.70;;;;;;;;;;4799072;29;20059;-80
2022/01/20 07:33:08;;;;;;;140.10;64.15;;;;;;;;;;4801750;29;20062;-79
2022/01/20 07:35:56;;;;;;;155.85;69.18;;;;;;;;;;4798178;29;20149;-80
2022/01/20 07:38:43;;;;;;;195.20;87.97;;;;;;;;;;4799329;29;20055;-81
2022/01/20 07:41:30;;;;;;;170.63;73.78;;;;;;;;;;4799112;29;20391;-80
2022/01/20 07:44:20;;;;;;;161.45;69.25;;;;;;;;;;4806845;29;20047;-80
2022/01/20 07:47:26;;;;;;;204.95;96.50;;;;;;;;;;4799295;29;20043;-80
2022/01/20 07:50:11;;;;;;;191.40;86.72;;;;;;;;;;4798689;29;20205;-80
2022/01/20 07:52:57;;;;;;;166.65;75.18;;;;;;;;;;4799020;29;20384;-80
2022/01/20 07:55:43;;;;;;;184.73;84.80;;;;;;;;;;4786349;29;20043;-79
2022/01/20 07:58:28;;;;;;;149.85;71.47;;;;;;;;;;4798409;29;20050;-80
2022/01/20 08:01:15;;;;;;;158.98;73.80;;;;;;;;;;4798694;29;20051;-79
2022/01/20 08:04:10;;;;;;;170.98;81.05;;;;;;;;;;4798939;29;20059;-80
2022/01/20 08:06:58;;;;;;;169.35;83.18;;;;;;;;;;4797793;29;20043;-80
2022/01/20 08:09:45;;;;;;;176.63;82.40;;;;;;;;;;4798866;29;20059;-80
2022/01/20 08:12:37;;;;;;;158.40;74.72;;;;;;;;;;4798160;29;20054;-80
2022/01/20 08:15:35;;;;;;;168.55;81.18;;;;;;;;;;4799189;29;20059;-80
2022/01/20 08:18:26;;;;;;;133.68;62.65;;;;;;;;;;4799044;29;20043;-79
2022/01/20 08:21:13;;;;;;;149.65;72.68;;;;;;;;;;4798670;29;20055;-80
2022/01/20 08:23:58;;;;;;;154.20;73.45;;;;;;;;;;4799097;29;20051;-80
2022/01/20 08:26:44;;;;;;;180.68;86.90;;;;;;;;;;4798831;29;20051;-81
2022/01/20 08:29:30;;;;;;;148.27;73.95;;;;;;;;;;4785065;29;20055;-80
2022/01/20 08:32:15;;;;;;;147.23;70.22;;;;;;;;;;4798443;29;20494;-80
2022/01/20 08:35:12;;;;;;;137.73;66.13;;;;;;;;;;4798190;29;20051;-80
2022/01/20 08:38:13;;;;;;;159.48;77.65;;;;;;;;;;4798608;29;20050;-80
2022/01/20 08:40:59;;;;;;;180.43;88.60;;;;;;;;;;4798813;29;20410;-79
2022/01/20 08:43:44;;;;;;;200.10;96.85;;;;;;;;;;4798143;29;20050;-79
2022/01/20 08:46:33;;;;;;;206.05;103.65;;;;;;;;;;4799323;29;20063;-80
2022/01/20 08:49:20;;;;;;;215.93;104.32;;;;;;;;;;4801898;29;20054;-80
2022/01/20 08:52:14;;;;;;;208.48;102.97;;;;;;;;;;4802210;29;20059;-80
2022/01/20 08:55:06;;;;;;;197.43;100.78;;;;;;;;;;4802106;29;20390;-80
2022/01/20 08:58:07;;;;;;;191.50;98.47;;;;;;;;;;4801288;29;20055;-79
2022/01/20 09:00:54;;;;;;;168.98;81.03;;;;;;;;;;4801664;29;20051;-79
2022/01/20 09:03:42;;;;;;;171.02;77.65;;;;;;;;;;4801491;29;20398;-79
2022/01/20 09:06:27;;;;;;;141.75;68.05;;;;;;;;;;4801501;29;20047;-77
2022/01/20 09:09:23;;;;;;;90.75;40.50;;;;;;;;;;4796080;29;20046;-76
2022/01/20 09:18:18;;;;;;;147.18;73.72;;;;;;;;;;4780823;29;20058;-77
2022/01/20 09:21:04;;;;;;;161.23;79.75;;;;;;;;;;4800988;29;20048;-76
2022/01/20 09:23:50;;;;;;;143.98;68.72;;;;;;;;;;4801742;29;20051;-74
2022/01/20 09:26:36;;;;;;;157.23;78.63;;;;;;;;;;4800810;29;20506;-76
2022/01/20 09:29:25;;;;;;;120.88;58.30;;;;;;;;;;4800629;29;20051;-76
2022/01/20 09:32:13;;;;;;;109.13;50.17;;;;;;;;;;4800135;29;20482;-75
2022/01/20 09:34:59;;;;;;;82.32;39.25;;;;;;;;;;4800618;29;20059;-75
2022/01/20 09:37:44;;;;;;;63.10;30.23;;;;;;;;;;4800689;29;20051;-75
2022/01/20 09:40:34;;;;;;;36.47;18.15;;;;;;;;;;4800789;29;20055;-75
2022/01/20 09:43:23;;;;;;;52.63;25.27;;;;;;;;;;4800551;29;20067;-75
2022/01/20 09:46:09;;;;;;;72.30;34.35;;;;;;;;;;4800926;29;20047;-76
2022/01/20 09:49:00;;;;;;;79.53;36.28;;;;;;;;;;4800960;29;20410;-75
2022/01/20 09:51:55;;;;;;;89.22;41.80;;;;;;;;;;4814787;29;20155;-74
2022/01/20 09:54:51;;;;;;;109.05;48.88;;;;;;;;;;4800182;29;20054;-74
2022/01/20 09:57:40;;;;;;;115.03;50.50;;;;;;;;;;4800542;29;20121;-74
2022/01/20 10:00:26;;;;;;;91.63;41.60;;;;;;;;;;4800128;29;20059;-74
2022/01/20 10:03:16;;;;;;;80.35;38.45;;;;;;;;;;4814017;29;20054;-74
2022/01/20 10:06:02;;;;;;;62.42;33.38;;;;;;;;;;4788348;29;20059;-74
2022/01/20 10:09:01;;;;;;;175.60;56.92;;;;;;;;;;4794965;29;20051;-74
2022/01/20 10:12:19;;;;;;;84.63;38.22;;;;;;;;;;4802870;29;20059;-74
2022/01/20 10:15:19;;;;;;;110.72;45.83;;;;;;;;;;4813718;29;20413;-74
2022/01/20 10:18:23;;;;;;;100.50;40.15;;;;;;;;;;4808298;29;20051;-74
2022/01/20 10:21:30;;;;;;;56.88;30.92;;;;;;;;;;4790128;29;20054;-73
2022/01/20 10:24:28;;;;;;;52.00;26.95;;;;;;;;;;4799357;29;20055;-73
2022/01/20 10:27:57;;;;;;;54.05;27.90;;;;;;;;;;4792826;29;20047;-74
2022/01/20 10:30:42;;;;;;;55.97;26.98;;;;;;;;;;4799434;29;20054;-74
2022/01/20 10:33:39;;;;;;;66.30;30.17;;;;;;;;;;4800560;29;20387;-73
2022/01/20 10:36:28;;;;;;;65.68;33.35;;;;;;;;;;4799213;29;20983;-74
2022/01/20 10:40:12;;;;;;;77.60;34.80;;;;;;;;;;4807727;29;20062;-74
2022/01/20 10:43:02;;;;;;;165.70;80.45;;;;;;;;;;4787885;29;20054;-74
2022/01/20 10:46:00;;;;;;;125.65;55.60;;;;;;;;;;4799309;29;20050;-75
2022/01/20 10:48:59;;;;;;;114.55;58.35;;;;;;;;;;4800249;29;20059;-74
2022/01/20 10:52:00;;;;;;;108.13;49.75;;;;;;;;;;4799297;29;20055;-75
2022/01/20 10:54:51;;;;;;;95.28;46.10;;;;;;;;;;4807684;29;20050;-74
2022/01/20 10:57:45;;;;;;;103.30;56.28;;;;;;;;;;4799408;29;20058;-77
2022/01/20 11:00:31;;;;;;;76.10;41.58;;;;;;;;;;4806778;29;20050;-74
2022/01/20 11:03:17;;;;;;;67.18;34.97;;;;;;;;;;4799560;29;20490;-73
2022/01/20 11:06:05;;;;;;;69.68;39.33;;;;;;;;;;4798965;29;20050;-73
2022/01/20 11:08:56;;;;;;;102.38;44.10;;;;;;;;;;4794326;29;20063;-74
2022/01/20 11:11:55;;;;;;;207.45;99.53;;;;;;;;;;4799105;29;20051;-74
2022/01/20 11:15:06;;;;;;;79.05;39.83;;;;;;;;;;4799274;29;20059;-74
2022/01/20 11:17:54;;;;;;;65.25;33.65;;;;;;;;;;4806796;29;20043;-75
2022/01/20 11:20:54;;;;;;;70.45;38.28;;;;;;;;;;4798602;29;20058;-79
2022/01/20 11:23:43;;;;;;;68.90;37.30;;;;;;;;;;4787414;29;20430;-75
2022/01/20 11:27:00;;;;;;;90.97;42.72;;;;;;;;;;4812308;29;20485;-76
2022/01/20 11:30:19;;;;;;;105.38;51.72;;;;;;;;;;4782504;29;20059;-74
2022/01/20 11:33:26;;;;;;;109.22;55.28;;;;;;;;;;4798185;29;20485;-74
2022/01/20 11:36:31;;;;;;;112.63;54.58;;;;;;;;;;4798805;29;20047;-73
2022/01/20 11:39:24;;;;;;;48.28;25.88;;;;;;;;;;4812919;29;20050;-74
2022/01/20 11:42:24;;;;;;;37.90;21.10;;;;;;;;;;4811633;29;20050;-75
2022/01/20 11:45:50;;;;;;;43.92;24.40;;;;;;;;;;4806595;29;20406;-75
2022/01/20 11:48:36;;;;;;;55.13;30.25;;;;;;;;;;4786462;29;20054;-74
2022/01/20 11:51:23;;;;;;;66.13;33.08;;;;;;;;;;4806633;29;20051;-74
2022/01/20 11:54:09;;;;;;;104.55;53.20;;;;;;;;;;4812510;29;20406;-75
2022/01/20 11:57:11;;;;;;;240.80;122.85;;;;;;;;;;4812483;29;20051;-74
2022/01/20 12:00:00;;;;;;;95.18;50.70;;;;;;;;;;4812704;29;20206;-74
2022/01/20 12:02:46;;;;;;;87.65;42.10;;;;;;;;;;4812117;29;20076;-74
2022/01/20 12:05:43;;;;;;;87.55;44.28;;;;;;;;;;4798860;29;20054;-74
2022/01/20 12:08:32;;;;;;;83.40;40.50;;;;;;;;;;4794673;29;20486;-75
2022/01/20 12:11:17;;;;;;;110.63;58.45;;;;;;;;;;4798321;29;20059;-74
2022/01/20 12:14:04;;;;;;;135.90;70.80;;;;;;;;;;4812363;29;20051;-74
2022/01/20 12:16:50;;;;;;;149.20;75.28;;;;;;;;;;4797746;29;20059;-75
2022/01/20 12:19:35;;;;;;;141.02;66.47;;;;;;;;;;4813304;29;20479;-74
2022/01/20 12:22:21;;;;;;;107.55;52.97;;;;;;;;;;4809008;29;20047;-75
2022/01/20 12:25:07;;;;;;;100.43;48.47;;;;;;;;;;4811661;29;20046;-74
2022/01/20 12:28:14;;;;;;;101.32;50.42;;;;;;;;;;4812353;29;20405;-74
2022/01/20 12:31:01;;;;;;;86.78;42.97;;;;;;;;;;4811708;29;20486;-74
2022/01/20 12:33:47;;;;;;;79.53;37.22;;;;;;;;;;4812321;29;20058;-74
2022/01/20 12:36:39;;;;;;;83.05;39.38;;;;;;;;;;4811731;29;20050;-73
2022/01/20 12:39:36;;;;;;;79.72;41.47;;;;;;;;;;4817846;29;20055;-73
2022/01/20 12:42:22;;;;;;;79.45;41.25;;;;;;;;;;4818051;29;20054;-75
2022/01/20 12:48:16;;;;;;;115.50;58.97;;;;;;;;;;4812356;29;20050;-74
2022/01/20 12:51:08;;;;;;;146.57;69.82;;;;;;;;;;4818038;29;20047;-75
2022/01/20 12:54:29;;;;;;;153.85;80.97;;;;;;;;;;4811868;29;20050;-73
2022/01/20 12:57:15;;;;;;;182.10;94.90;;;;;;;;;;4818466;29;20043;-74
2022/01/20 13:00:03;;;;;;;154.05;71.15;;;;;;;;;;4817515;29;20055;-74
2022/01/20 13:02:53;;;;;;;143.73;66.70;;;;;;;;;;4812091;29;20062;-74
2022/01/20 13:05:41;;;;;;;162.80;73.50;;;;;;;;;;4811538;29;20047;-73
2022/01/20 13:08:32;;;;;;;118.82;57.30;;;;;;;;;;4814046;29;20051;-73
2022/01/20 13:11:27;;;;;;;154.30;68.45;;;;;;;;;;4812027;29;20055;-74
2022/01/20 13:14:13;;;;;;;152.05;71.40;;;;;;;;;;4810885;29;20047;-74
2022/01/20 13:16:58;;;;;;;97.57;46.28;;;;;;;;;;4811866;29;20509;-74
2022/01/20 13:19:47;;;;;;;91.93;43.55;;;;;;;;;;4817274;29;20050;-75
2022/01/20 13:22:53;;;;;;;61.80;32.28;;;;;;;;;;4811002;29;20050;-76
2022/01/20 13:25:40;;;;;;;61.42;31.80;;;;;;;;;;4800370;29;20047;-74
2022/01/20 13:28:24;;;;;;;70.10;38.83;;;;;;;;;;4817308;29;20047;-75
2022/01/20 13:31:15;;;;;;;66.07;34.95;;;;;;;;;;4811836;29;20051;-74
2022/01/20 13:34:12;;;;;;;61.65;34.22;;;;;;;;;;4814273;29;20054;-75
2022/01/20 13:36:57;;;;;;;68.70;35.88;;;;;;;;;;4808470;29;20054;-72
2022/01/20 13:39:44;;;;;;;66.35;35.83;;;;;;;;;;4808976;29;20050;-72
2022/01/20 13:45:18;;;;;;;145.43;64.25;;;;;;;;;;4808448;29;20059;-73
2022/01/20 13:48:03;;;;;;;66.00;34.38;;;;;;;;;;4808786;29;20046;-72
2022/01/20 13:50:55;;;;;;;62.30;32.45;;;;;;;;;;4807903;29;20401;-73
2022/01/20 13:53:41;;;;;;;68.18;36.22;;;;;;;;;;4800888;29;20489;-74
2022/01/20 13:56:25;;;;;;;84.85;40.72;;;;;;;;;;4814245;29;20050;-74
2022/01/20 13:59:11;;;;;;;135.35;66.63;;;;;;;;;;4808308;29;20051;-72
2022/01/20 14:01:57;;;;;;;78.18;40.53;;;;;;;;;;4814960;29;20141;-74
2022/01/20 14:04:42;;;;;;;86.38;41.50;;;;;;;;;;4807948;29;20055;-73
2022/01/20 14:07:27;;;;;;;108.43;48.40;;;;;;;;;;4794580;29;20055;-73
2022/01/20 14:10:16;;;;;;;116.22;49.40;;;;;;;;;;4813793;29;20047;-73
2022/01/20 14:13:01;;;;;;;131.68;53.20;;;;;;;;;;4800602;29;20490;-73
2022/01/20 14:15:49;;;;;;;112.70;55.22;;;;;;;;;;4808158;29;20039;-73
2022/01/20 14:18:42;;;;;;;150.93;84.47;;;;;;;;;;4807807;29;20050;-72
2022/01/20 14:21:27;;;;;;;150.75;78.32;;;;;;;;;;4814287;29;20046;-73
2022/01/20 14:24:12;;;;;;;202.45;100.88;;;;;;;;;;4807248;29;20051;-75
2022/01/20 14:27:08;;;;;;;181.25;91.45;;;;;;;;;;4813980;29;20055;-72
2022/01/20 14:29:53;;;;;;;189.80;91.35;;;;;;;;;;4800405;29;20046;-73
2022/01/20 14:32:41;;;;;;;342.95;175.52;;;;;;;;;;4807598;29;20055;-73
2022/01/20 14:35:29;;;;;;;320.63;162.77;;;;;;;;;;4814290;29;20055;-71
2022/01/20 14:38:15;;;;;;;352.45;183.90;;;;;;;;;;4794008;29;20055;-73
2022/01/20 14:41:01;;;;;;;374.38;194.48;;;;;;;;;;4813832;29;20050;-71
2022/01/20 14:43:46;;;;;;;336.55;166.27;;;;;;;;;;4813794;29;20046;-71
2022/01/20 14:46:32;;;;;;;357.08;186.32;;;;;;;;;;4806797;29;20046;-71
2022/01/20 14:49:18;;;;;;;316.67;157.52;;;;;;;;;;4808021;29;20497;-73
2022/01/20 14:52:06;;;;;;;322.20;164.25;;;;;;;;;;4807597;29;20490;-74
2022/01/20 14:54:52;;;;;;;293.40;150.77;;;;;;;;;;4808080;29;20066;-71
2022/01/20 14:57:38;;;;;;;278.77;141.15;;;;;;;;;;4799689;29;20054;-71
2022/01/20 15:00:23;;;;;;;278.98;147.75;;;;;;;;;;4806854;29;20054;-72
2022/01/20 15:03:08;;;;;;;271.05;145.18;;;;;;;;;;4813587;29;20042;-71
2022/01/20 15:05:55;;;;;;;286.58;155.68;;;;;;;;;;4806261;29;20490;-74
2022/01/20 15:08:40;;;;;;;325.80;161.82;;;;;;;;;;4805528;29;20055;-72
2022/01/20 15:11:26;;;;;;;279.95;149.15;;;;;;;;;;4806847;29;20047;-74
2022/01/20 15:14:12;;;;;;;272.60;142.38;;;;;;;;;;4806885;29;20051;-72
2022/01/20 15:16:57;;;;;;;262.95;130.77;;;;;;;;;;4812767;29;20058;-72
2022/01/20 15:19:43;;;;;;;704.00;362.30;;;;;;;;;;4807094;29;20047;-71
2022/01/20 15:22:28;;;;;;;379.48;189.32;;;;;;;;;;4798990;29;20050;-74
2022/01/20 15:25:14;;;;;;;415.20;212.40;;;;;;;;;;4807008;29;20387;-73
2022/01/20 15:28:01;;;;;;;333.67;161.68;;;;;;;;;;4812301;29;20046;-71
2022/01/20 15:30:48;;;;;;;255.32;122.95;;;;;;;;;;4806477;29;20058;-72
2022/01/20 15:33:33;;;;;;;232.75;114.28;;;;;;;;;;4806525;29;20059;-71
2022/01/20 15:36:18;;;;;;;305.23;145.25;;;;;;;;;;4812098;29;20051;-72
2022/01/20 15:39:09;;;;;;;284.75;146.85;;;;;;;;;;4812904;29;20047;-74
2022/01/20 15:41:55;;;;;;;272.90;138.55;;;;;;;;;;4807458;29;20363;-74
2022/01/20 15:44:40;;;;;;;300.48;148.82;;;;;;;;;;4792231;29;20054;-72
2022/01/20 15:47:26;;;;;;;316.33;166.00;;;;;;;;;;4806404;29;20387;-73
2022/01/20 15:50:13;;;;;;;452.38;233.00;;;;;;;;;;4792715;29;20059;-72
2022/01/20 15:53:05;;;;;;;400.33;203.82;;;;;;;;;;4793529;29;20058;-71
2022/01/20 15:55:51;;;;;;;434.83;247.30;;;;;;;;;;4806641;29;20043;-71
2022/01/20 15:58:36;;;;;;;438.80;248.93;;;;;;;;;;4806095;29;20367;-83
2022/01/20 16:01:23;;;;;;;405.02;226.30;;;;;;;;;;4807383;29;20051;-82
2022/01/20 16:04:14;;;;;;;411.52;232.68;;;;;;;;;;4798912;29;20059;-80
2022/01/20 16:07:02;;;;;;;385.70;208.63;;;;;;;;;;4807431;29;20371;-82
2022/01/20 16:09:47;;;;;;;391.38;220.10;;;;;;;;;;4806941;29;20051;-81
2022/01/20 16:12:37;;;;;;;475.65;283.25;;;;;;;;;;4806247;29;20379;-79
2022/01/20 16:15:23;;;;;;;368.33;200.90;;;;;;;;;;4806906;29;20050;-81
2022/01/20 16:18:17;;;;;;;375.75;206.82;;;;;;;;;;4798286;29;20054;-82
2022/01/20 16:21:06;;;;;;;368.33;198.05;;;;;;;;;;4806530;29;20039;-79
2022/01/20 16:23:52;;;;;;;368.13;198.70;;;;;;;;;;4798171;29;20054;-80
2022/01/20 16:26:37;;;;;;;369.17;198.63;;;;;;;;;;4812139;29;20494;-79
2022/01/20 16:29:23;;;;;;;463.85;258.27;;;;;;;;;;4806555;29;20486;-81
2022/01/20 16:32:09;;;;;;;401.73;230.02;;;;;;;;;;4792933;29;20051;-80
2022/01/20 16:34:55;;;;;;;387.42;219.32;;;;;;;;;;4792857;29;20055;-82
2022/01/20 16:37:40;;;;;;;403.98;229.55;;;;;;;;;;4807104;29;20383;-82
2022/01/20 16:40:28;;;;;;;385.65;209.63;;;;;;;;;;4806665;29;20051;-82
2022/01/20 16:43:13;;;;;;;374.42;205.70;;;;;;;;;;4806866;29;20482;-82
2022/01/20 16:45:59;;;;;;;338.92;172.10;;;;;;;;;;4806424;29;20055;-79
2022/01/20 16:48:44;;;;;;;364.45;184.07;;;;;;;;;;4806195;29;20051;-81
2022/01/20 16:51:30;;;;;;;472.83;260.75;;;;;;;;;;4806521;29;20371;-80
2022/01/20 16:54:16;;;;;;;201.40;103.35;;;;;;;;;;4792210;29;20387;-79
2022/01/20 16:57:03;;;;;;;157.43;77.72;;;;;;;;;;4812365;29;20051;-79
2022/01/20 16:59:52;;;;;;;153.50;76.85;;;;;;;;;;4806202;29;20502;-78
2022/01/20 17:03:13;;;;;;;195.73;97.25;;;;;;;;;;4801761;29;20043;-79
2022/01/20 17:05:50;;;;;;;209.95;98.20;;;;;;;;;;4828206;29;20054;-82
2022/01/20 17:08:36;;;;;;;147.68;70.63;;;;;;;;;;4806553;29;20043;-79
2022/01/20 17:11:21;;;;;;;191.57;98.50;;;;;;;;;;4809978;29;20047;-79
2022/01/20 17:14:37;;;;;;;247.35;129.00;;;;;;;;;;4810397;29;20051;-79
2022/01/20 17:17:31;;;;;;;219.02;111.55;;;;;;;;;;4802484;29;20054;-82
2022/01/20 17:20:18;;;;;;;249.98;121.93;;;;;;;;;;4790433;29;20050;-81
2022/01/20 17:23:04;;;;;;;320.48;166.32;;;;;;;;;;4808739;29;20055;-80
2022/01/20 17:25:50;;;;;;;375.48;195.30;;;;;;;;;;4808920;29;20063;-80